sensor_id;sensor_type;location;lat;lon;timestamp;P1;durP1;ratioP1;P2;durP2;ratioP2
36205;SDS011;22242;48.796;9.930;2023-07-22T00:01:23;3.63;;;2.00;;
36205;SDS011;22242;48.796;9.930;2023-07-22T00:03:50;3.35;;;2.20;;
36205;SDS011;22242;48.796;9.930;2023-07-22T00:06:17;3.47;;;2.22;;
36205;SDS011;22242;48.796;9.930;2023-07-22T00:08:44;3.00;;;1.83;;
36205;SDS011;22242;48.796;9.930;2023-07-22T00:11:13;3.42;;;1.90;;
36205;SDS011;22242;48.796;9.930;2023-07-22T00:13:40;3.47;;;2.30;;
36205;SDS011;22242;48.796;9.930;2023-07-22T00:16:09;4.13;;;2.25;;
36205;SDS011;22242;48.796;9.930;2023-07-22T00:18:36;4.32;;;2.17;;
36205;SDS011;22242;48.796;9.930;2023-07-22T00:21:03;2.22;;;2.03;;
36205;SDS011;22242;48.796;9.930;2023-07-22T00:23:32;3.67;;;2.00;;
36205;SDS011;22242;48.796;9.930;2023-07-22T00:25:59;3.85;;;1.75;;
36205;SDS011;22242;48.796;9.930;2023-07-22T00:28:27;3.90;;;2.15;;
36205;SDS011;22242;48.796;9.930;2023-07-22T00:30:54;3.05;;;1.95;;
36205;SDS011;22242;48.796;9.930;2023-07-22T00:33:22;3.67;;;2.28;;
36205;SDS011;22242;48.796;9.930;2023-07-22T00:35:49;3.97;;;2.40;;
36205;SDS011;22242;48.796;9.930;2023-07-22T00:38:17;3.72;;;2.30;;
36205;SDS011;22242;48.796;9.930;2023-07-22T00:40:44;4.63;;;2.75;;
36205;SDS011;22242;48.796;9.930;2023-07-22T00:43:11;3.03;;;2.50;;
36205;SDS011;22242;48.796;9.930;2023-07-22T00:45:40;2.67;;;2.47;;
36205;SDS011;22242;48.796;9.930;2023-07-22T00:48:07;6.60;;;2.60;;
36205;SDS011;22242;48.796;9.930;2023-07-22T00:50:36;4.82;;;2.25;;
36205;SDS011;22242;48.796;9.930;2023-07-22T00:53:04;4.05;;;2.40;;
36205;SDS011;22242;48.796;9.930;2023-07-22T00:55:32;3.35;;;2.53;;
36205;SDS011;22242;48.796;9.930;2023-07-22T00:58:00;4.65;;;2.67;;
36205;SDS011;22242;48.796;9.930;2023-07-22T01:00:27;3.60;;;2.30;;
36205;SDS011;22242;48.796;9.930;2023-07-22T01:02:55;4.55;;;2.38;;
36205;SDS011;22242;48.796;9.930;2023-07-22T01:05:22;2.67;;;2.22;;
36205;SDS011;22242;48.796;9.930;2023-07-22T01:07:50;3.28;;;2.03;;
36205;SDS011;22242;48.796;9.930;2023-07-22T01:10:18;2.25;;;2.00;;
36205;SDS011;22242;48.796;9.930;2023-07-22T01:12:45;3.47;;;2.00;;
36205;SDS011;22242;48.796;9.930;2023-07-22T01:15:12;3.20;;;2.13;;
36205;SDS011;22242;48.796;9.930;2023-07-22T01:17:39;2.40;;;2.10;;
36205;SDS011;22242;48.796;9.930;2023-07-22T01:20:08;1.90;;;1.70;;
36205;SDS011;22242;48.796;9.930;2023-07-22T01:22:36;3.63;;;1.90;;
36205;SDS011;22242;48.796;9.930;2023-07-22T01:25:06;1.92;;;1.70;;
36205;SDS011;22242;48.796;9.930;2023-07-22T01:27:34;3.38;;;2.05;;
36205;SDS011;22242;48.796;9.930;2023-07-22T01:30:02;8.20;;;2.03;;
36205;SDS011;22242;48.796;9.930;2023-07-22T01:32:29;2.70;;;1.67;;
36205;SDS011;22242;48.796;9.930;2023-07-22T01:34:57;2.63;;;2.00;;
36205;SDS011;22242;48.796;9.930;2023-07-22T01:37:24;3.20;;;1.67;;
36205;SDS011;22242;48.796;9.930;2023-07-22T01:39:51;2.08;;;1.70;;
36205;SDS011;22242;48.796;9.930;2023-07-22T01:42:20;2.53;;;1.65;;
36205;SDS011;22242;48.796;9.930;2023-07-22T01:44:47;2.60;;;1.70;;
36205;SDS011;22242;48.796;9.930;2023-07-22T01:47:14;2.38;;;1.90;;
36205;SDS011;22242;48.796;9.930;2023-07-22T01:49:41;3.33;;;1.77;;
36205;SDS011;22242;48.796;9.930;2023-07-22T01:52:09;3.65;;;1.92;;
36205;SDS011;22242;48.796;9.930;2023-07-22T01:54:36;2.28;;;1.85;;
36205;SDS011;22242;48.796;9.930;2023-07-22T01:57:04;3.28;;;1.92;;
36205;SDS011;22242;48.796;9.930;2023-07-22T01:59:33;2.33;;;2.10;;
36205;SDS011;22242;48.796;9.930;2023-07-22T02:02:00;2.92;;;1.98;;
36205;SDS011;22242;48.796;9.930;2023-07-22T02:04:27;3.10;;;1.52;;
36205;SDS011;22242;48.796;9.930;2023-07-22T02:06:54;3.95;;;1.90;;
36205;SDS011;22242;48.796;9.930;2023-07-22T02:09:21;2.00;;;1.67;;
36205;SDS011;22242;48.796;9.930;2023-07-22T02:11:48;2.30;;;1.65;;
36205;SDS011;22242;48.796;9.930;2023-07-22T02:14:15;5.93;;;2.15;;
36205;SDS011;22242;48.796;9.930;2023-07-22T02:16:44;3.53;;;2.00;;
36205;SDS011;22242;48.796;9.930;2023-07-22T02:19:11;1.63;;;1.52;;
36205;SDS011;22242;48.796;9.930;2023-07-22T02:21:41;2.70;;;2.08;;
36205;SDS011;22242;48.796;9.930;2023-07-22T02:24:09;3.80;;;1.90;;
36205;SDS011;22242;48.796;9.930;2023-07-22T02:26:36;1.80;;;1.58;;
36205;SDS011;22242;48.796;9.930;2023-07-22T02:29:03;4.10;;;1.80;;
36205;SDS011;22242;48.796;9.930;2023-07-22T02:31:30;3.28;;;2.00;;
36205;SDS011;22242;48.796;9.930;2023-07-22T02:33:59;2.03;;;1.83;;
36205;SDS011;22242;48.796;9.930;2023-07-22T02:36:26;3.60;;;1.90;;
36205;SDS011;22242;48.796;9.930;2023-07-22T02:38:53;3.25;;;2.10;;
36205;SDS011;22242;48.796;9.930;2023-07-22T02:41:20;3.03;;;1.70;;
36205;SDS011;22242;48.796;9.930;2023-07-22T02:43:47;1.77;;;1.60;;
36205;SDS011;22242;48.796;9.930;2023-07-22T02:46:15;2.22;;;1.80;;
36205;SDS011;22242;48.796;9.930;2023-07-22T02:48:43;2.17;;;1.98;;
36205;SDS011;22242;48.796;9.930;2023-07-22T02:51:11;2.20;;;1.77;;
36205;SDS011;22242;48.796;9.930;2023-07-22T02:53:38;3.70;;;1.88;;
36205;SDS011;22242;48.796;9.930;2023-07-22T02:56:06;3.15;;;2.05;;
36205;SDS011;22242;48.796;9.930;2023-07-22T02:58:34;1.77;;;1.65;;
36205;SDS011;22242;48.796;9.930;2023-07-22T03:01:02;3.17;;;2.35;;
36205;SDS011;22242;48.796;9.930;2023-07-22T03:03:29;4.40;;;2.08;;
36205;SDS011;22242;48.796;9.930;2023-07-22T03:05:58;3.55;;;1.85;;
36205;SDS011;22242;48.796;9.930;2023-07-22T03:08:27;2.65;;;2.03;;
36205;SDS011;22242;48.796;9.930;2023-07-22T03:10:54;3.03;;;2.25;;
36205;SDS011;22242;48.796;9.930;2023-07-22T03:13:21;2.47;;;2.08;;
36205;SDS011;22242;48.796;9.930;2023-07-22T03:15:49;2.40;;;1.98;;
36205;SDS011;22242;48.796;9.930;2023-07-22T03:18:16;3.20;;;2.05;;
36205;SDS011;22242;48.796;9.930;2023-07-22T03:20:43;3.92;;;2.33;;
36205;SDS011;22242;48.796;9.930;2023-07-22T03:23:10;3.10;;;1.60;;
36205;SDS011;22242;48.796;9.930;2023-07-22T03:25:38;2.05;;;1.70;;
36205;SDS011;22242;48.796;9.930;2023-07-22T03:28:06;2.50;;;1.92;;
36205;SDS011;22242;48.796;9.930;2023-07-22T03:30:33;3.92;;;1.70;;
36205;SDS011;22242;48.796;9.930;2023-07-22T03:33:01;2.92;;;2.17;;
36205;SDS011;22242;48.796;9.930;2023-07-22T03:35:28;3.00;;;1.95;;
36205;SDS011;22242;48.796;9.930;2023-07-22T03:37:55;2.47;;;2.00;;
36205;SDS011;22242;48.796;9.930;2023-07-22T03:40:22;1.95;;;1.58;;
36205;SDS011;22242;48.796;9.930;2023-07-22T03:42:57;3.55;;;1.92;;
36205;SDS011;22242;48.796;9.930;2023-07-22T03:45:24;3.15;;;1.85;;
36205;SDS011;22242;48.796;9.930;2023-07-22T03:47:53;3.20;;;2.08;;
36205;SDS011;22242;48.796;9.930;2023-07-22T03:50:23;2.30;;;1.90;;
36205;SDS011;22242;48.796;9.930;2023-07-22T03:52:50;2.85;;;2.05;;
36205;SDS011;22242;48.796;9.930;2023-07-22T03:55:17;2.55;;;1.90;;
36205;SDS011;22242;48.796;9.930;2023-07-22T03:57:45;2.85;;;1.95;;
36205;SDS011;22242;48.796;9.930;2023-07-22T04:00:13;3.53;;;1.83;;
36205;SDS011;22242;48.796;9.930;2023-07-22T04:02:41;3.83;;;2.20;;
36205;SDS011;22242;48.796;9.930;2023-07-22T04:05:09;2.63;;;2.17;;
36205;SDS011;22242;48.796;9.930;2023-07-22T04:07:38;3.45;;;2.38;;
36205;SDS011;22242;48.796;9.930;2023-07-22T04:10:05;6.13;;;2.20;;
36205;SDS011;22242;48.796;9.930;2023-07-22T04:12:33;2.90;;;2.10;;
36205;SDS011;22242;48.796;9.930;2023-07-22T04:15:01;4.45;;;2.17;;
36205;SDS011;22242;48.796;9.930;2023-07-22T04:17:30;2.80;;;1.80;;
36205;SDS011;22242;48.796;9.930;2023-07-22T04:19:57;2.35;;;1.90;;
36205;SDS011;22242;48.796;9.930;2023-07-22T04:22:24;2.03;;;1.80;;
36205;SDS011;22242;48.796;9.930;2023-07-22T04:24:51;2.65;;;1.95;;
36205;SDS011;22242;48.796;9.930;2023-07-22T04:27:19;2.85;;;1.83;;
36205;SDS011;22242;48.796;9.930;2023-07-22T04:29:46;3.83;;;2.10;;
36205;SDS011;22242;48.796;9.930;2023-07-22T04:32:14;4.38;;;2.28;;
36205;SDS011;22242;48.796;9.930;2023-07-22T04:34:42;4.18;;;2.25;;
36205;SDS011;22242;48.796;9.930;2023-07-22T04:37:09;6.05;;;2.55;;
36205;SDS011;22242;48.796;9.930;2023-07-22T04:39:36;6.00;;;2.72;;
36205;SDS011;22242;48.796;9.930;2023-07-22T04:42:04;4.68;;;2.53;;
36205;SDS011;22242;48.796;9.930;2023-07-22T04:44:31;2.63;;;2.05;;
36205;SDS011;22242;48.796;9.930;2023-07-22T04:46:58;3.83;;;2.17;;
36205;SDS011;22242;48.796;9.930;2023-07-22T04:49:26;2.83;;;1.80;;
36205;SDS011;22242;48.796;9.930;2023-07-22T04:51:54;2.60;;;1.70;;
36205;SDS011;22242;48.796;9.930;2023-07-22T04:54:21;3.70;;;2.00;;
36205;SDS011;22242;48.796;9.930;2023-07-22T04:56:48;3.38;;;2.13;;
36205;SDS011;22242;48.796;9.930;2023-07-22T04:59:16;2.28;;;1.90;;
36205;SDS011;22242;48.796;9.930;2023-07-22T05:01:44;2.42;;;1.70;;
36205;SDS011;22242;48.796;9.930;2023-07-22T05:04:11;3.63;;;1.63;;
36205;SDS011;22242;48.796;9.930;2023-07-22T05:06:38;2.15;;;1.95;;
36205;SDS011;22242;48.796;9.930;2023-07-22T05:09:07;3.33;;;1.92;;
36205;SDS011;22242;48.796;9.930;2023-07-22T05:11:34;2.97;;;2.15;;
36205;SDS011;22242;48.796;9.930;2023-07-22T05:14:01;2.33;;;1.48;;
36205;SDS011;22242;48.796;9.930;2023-07-22T05:16:29;2.53;;;1.58;;
36205;SDS011;22242;48.796;9.930;2023-07-22T05:18:55;3.40;;;2.05;;
36205;SDS011;22242;48.796;9.930;2023-07-22T05:21:23;3.58;;;2.47;;
36205;SDS011;22242;48.796;9.930;2023-07-22T05:23:50;3.17;;;2.33;;
36205;SDS011;22242;48.796;9.930;2023-07-22T05:26:18;5.20;;;2.50;;
36205;SDS011;22242;48.796;9.930;2023-07-22T05:28:45;3.22;;;2.28;;
36205;SDS011;22242;48.796;9.930;2023-07-22T05:31:12;3.03;;;2.38;;
36205;SDS011;22242;48.796;9.930;2023-07-22T05:33:40;5.18;;;2.25;;
36205;SDS011;22242;48.796;9.930;2023-07-22T05:36:07;4.10;;;1.90;;
36205;SDS011;22242;48.796;9.930;2023-07-22T05:38:34;4.60;;;2.45;;
36205;SDS011;22242;48.796;9.930;2023-07-22T05:41:01;3.20;;;2.22;;
36205;SDS011;22242;48.796;9.930;2023-07-22T05:43:29;2.15;;;1.95;;
36205;SDS011;22242;48.796;9.930;2023-07-22T05:45:56;3.58;;;2.33;;
36205;SDS011;22242;48.796;9.930;2023-07-22T05:48:23;3.78;;;2.05;;
36205;SDS011;22242;48.796;9.930;2023-07-22T05:50:50;3.20;;;1.85;;
36205;SDS011;22242;48.796;9.930;2023-07-22T05:53:18;3.35;;;1.83;;
36205;SDS011;22242;48.796;9.930;2023-07-22T05:55:45;2.80;;;1.90;;
36205;SDS011;22242;48.796;9.930;2023-07-22T05:58:16;4.13;;;1.83;;
36205;SDS011;22242;48.796;9.930;2023-07-22T06:00:45;3.70;;;2.00;;
36205;SDS011;22242;48.796;9.930;2023-07-22T06:03:12;4.35;;;1.90;;
36205;SDS011;22242;48.796;9.930;2023-07-22T06:05:39;2.47;;;1.50;;
36205;SDS011;22242;48.796;9.930;2023-07-22T06:08:06;3.13;;;1.80;;
36205;SDS011;22242;48.796;9.930;2023-07-22T06:10:33;4.60;;;1.98;;
36205;SDS011;22242;48.796;9.930;2023-07-22T06:13:03;3.15;;;2.10;;
36205;SDS011;22242;48.796;9.930;2023-07-22T06:15:30;6.22;;;2.33;;
36205;SDS011;22242;48.796;9.930;2023-07-22T06:17:58;3.25;;;2.63;;
36205;SDS011;22242;48.796;9.930;2023-07-22T06:20:26;4.78;;;2.80;;
36205;SDS011;22242;48.796;9.930;2023-07-22T06:22:53;5.72;;;3.00;;
36205;SDS011;22242;48.796;9.930;2023-07-22T06:25:21;6.57;;;2.42;;
36205;SDS011;22242;48.796;9.930;2023-07-22T06:27:48;3.85;;;2.58;;
36205;SDS011;22242;48.796;9.930;2023-07-22T06:30:15;2.92;;;2.38;;
36205;SDS011;22242;48.796;9.930;2023-07-22T06:32:42;1.85;;;1.70;;
36205;SDS011;22242;48.796;9.930;2023-07-22T06:35:11;3.22;;;2.08;;
36205;SDS011;22242;48.796;9.930;2023-07-22T06:37:38;4.40;;;2.25;;
36205;SDS011;22242;48.796;9.930;2023-07-22T06:40:06;2.97;;;2.22;;
36205;SDS011;22242;48.796;9.930;2023-07-22T06:42:33;3.72;;;2.10;;
36205;SDS011;22242;48.796;9.930;2023-07-22T06:45:01;2.95;;;2.33;;
36205;SDS011;22242;48.796;9.930;2023-07-22T06:47:28;2.47;;;2.08;;
36205;SDS011;22242;48.796;9.930;2023-07-22T06:49:55;3.72;;;2.47;;
36205;SDS011;22242;48.796;9.930;2023-07-22T06:52:24;3.35;;;2.20;;
36205;SDS011;22242;48.796;9.930;2023-07-22T06:54:52;4.05;;;2.60;;
36205;SDS011;22242;48.796;9.930;2023-07-22T06:57:19;3.50;;;2.40;;
36205;SDS011;22242;48.796;9.930;2023-07-22T06:59:47;2.92;;;2.63;;
36205;SDS011;22242;48.796;9.930;2023-07-22T07:02:16;2.28;;;2.08;;
36205;SDS011;22242;48.796;9.930;2023-07-22T07:04:43;3.10;;;2.20;;
36205;SDS011;22242;48.796;9.930;2023-07-22T07:07:10;2.03;;;1.73;;
36205;SDS011;22242;48.796;9.930;2023-07-22T07:09:39;2.28;;;2.08;;
36205;SDS011;22242;48.796;9.930;2023-07-22T07:12:07;2.25;;;1.90;;
36205;SDS011;22242;48.796;9.930;2023-07-22T07:14:34;2.78;;;1.77;;
36205;SDS011;22242;48.796;9.930;2023-07-22T07:17:02;1.88;;;1.77;;
36205;SDS011;22242;48.796;9.930;2023-07-22T07:19:29;1.70;;;1.60;;
36205;SDS011;22242;48.796;9.930;2023-07-22T07:21:56;1.70;;;1.60;;
36205;SDS011;22242;48.796;9.930;2023-07-22T07:24:23;1.45;;;1.35;;
36205;SDS011;22242;48.796;9.930;2023-07-22T07:26:54;2.53;;;1.50;;
36205;SDS011;22242;48.796;9.930;2023-07-22T07:29:21;1.55;;;1.45;;
36205;SDS011;22242;48.796;9.930;2023-07-22T07:31:47;2.20;;;1.77;;
36205;SDS011;22242;48.796;9.930;2023-07-22T07:34:15;2.22;;;1.58;;
36205;SDS011;22242;48.796;9.930;2023-07-22T07:36:42;2.05;;;1.65;;
36205;SDS011;22242;48.796;9.930;2023-07-22T07:39:09;1.70;;;1.60;;
36205;SDS011;22242;48.796;9.930;2023-07-22T07:41:36;1.65;;;1.52;;
36205;SDS011;22242;48.796;9.930;2023-07-22T07:44:06;4.22;;;1.45;;
36205;SDS011;22242;48.796;9.930;2023-07-22T07:46:33;1.90;;;1.67;;
36205;SDS011;22242;48.796;9.930;2023-07-22T07:49:01;1.88;;;1.70;;
36205;SDS011;22242;48.796;9.930;2023-07-22T07:51:28;1.85;;;1.40;;
36205;SDS011;22242;48.796;9.930;2023-07-22T07:53:59;1.75;;;1.60;;
36205;SDS011;22242;48.796;9.930;2023-07-22T07:56:26;3.22;;;1.75;;
36205;SDS011;22242;48.796;9.930;2023-07-22T07:58:54;2.35;;;1.42;;
36205;SDS011;22242;48.796;9.930;2023-07-22T08:01:23;1.33;;;1.17;;
36205;SDS011;22242;48.796;9.930;2023-07-22T08:03:50;2.13;;;1.58;;
36205;SDS011;22242;48.796;9.930;2023-07-22T08:06:17;1.75;;;1.50;;
36205;SDS011;22242;48.796;9.930;2023-07-22T08:08:44;1.80;;;1.40;;
36205;SDS011;22242;48.796;9.930;2023-07-22T08:11:12;2.72;;;1.50;;
36205;SDS011;22242;48.796;9.930;2023-07-22T08:13:41;1.60;;;1.50;;
36205;SDS011;22242;48.796;9.930;2023-07-22T08:16:10;1.48;;;1.38;;
36205;SDS011;22242;48.796;9.930;2023-07-22T08:18:39;1.75;;;1.30;;
36205;SDS011;22242;48.796;9.930;2023-07-22T08:21:07;1.50;;;1.27;;
36205;SDS011;22242;48.796;9.930;2023-07-22T08:23:35;1.60;;;1.38;;
36205;SDS011;22242;48.796;9.930;2023-07-22T08:26:02;1.48;;;1.38;;
36205;SDS011;22242;48.796;9.930;2023-07-22T08:28:31;1.60;;;1.27;;
36205;SDS011;22242;48.796;9.930;2023-07-22T08:30:58;1.40;;;1.30;;
36205;SDS011;22242;48.796;9.930;2023-07-22T08:33:26;2.08;;;1.50;;
36205;SDS011;22242;48.796;9.930;2023-07-22T08:35:55;1.33;;;1.23;;
36205;SDS011;22242;48.796;9.930;2023-07-22T08:38:22;1.75;;;1.27;;
36205;SDS011;22242;48.796;9.930;2023-07-22T08:40:50;1.20;;;1.10;;
36205;SDS011;22242;48.796;9.930;2023-07-22T08:43:19;2.97;;;1.38;;
36205;SDS011;22242;48.796;9.930;2023-07-22T08:45:48;1.30;;;1.15;;
36205;SDS011;22242;48.796;9.930;2023-07-22T08:48:18;1.98;;;1.50;;
36205;SDS011;22242;48.796;9.930;2023-07-22T08:50:49;1.70;;;1.60;;
36205;SDS011;22242;48.796;9.930;2023-07-22T08:53:20;1.27;;;1.10;;
36205;SDS011;22242;48.796;9.930;2023-07-22T08:55:48;1.38;;;1.27;;
36205;SDS011;22242;48.796;9.930;2023-07-22T08:58:16;1.17;;;1.00;;
36205;SDS011;22242;48.796;9.930;2023-07-22T09:00:44;1.30;;;1.20;;
36205;SDS011;22242;48.796;9.930;2023-07-22T09:03:11;2.90;;;1.30;;
36205;SDS011;22242;48.796;9.930;2023-07-22T09:05:39;2.00;;;1.58;;
36205;SDS011;22242;48.796;9.930;2023-07-22T09:08:07;2.50;;;1.50;;
36205;SDS011;22242;48.796;9.930;2023-07-22T09:10:36;0.98;;;0.98;;
36205;SDS011;22242;48.796;9.930;2023-07-22T09:13:04;1.30;;;1.13;;
36205;SDS011;22242;48.796;9.930;2023-07-22T09:15:32;1.30;;;1.20;;
36205;SDS011;22242;48.796;9.930;2023-07-22T09:18:02;2.42;;;1.23;;
36205;SDS011;22242;48.796;9.930;2023-07-22T09:20:29;1.38;;;1.25;;
36205;SDS011;22242;48.796;9.930;2023-07-22T09:22:56;2.47;;;1.23;;
36205;SDS011;22242;48.796;9.930;2023-07-22T09:25:25;1.48;;;1.20;;
36205;SDS011;22242;48.796;9.930;2023-07-22T09:27:55;1.60;;;1.23;;
36205;SDS011;22242;48.796;9.930;2023-07-22T09:30:26;3.72;;;1.30;;
36205;SDS011;22242;48.796;9.930;2023-07-22T09:32:54;1.30;;;1.20;;
36205;SDS011;22242;48.796;9.930;2023-07-22T09:35:23;1.65;;;1.27;;
36205;SDS011;22242;48.796;9.930;2023-07-22T09:37:53;1.20;;;1.10;;
36205;SDS011;22242;48.796;9.930;2023-07-22T09:40:20;1.85;;;1.30;;
36205;SDS011;22242;48.796;9.930;2023-07-22T09:42:50;2.28;;;1.50;;
36205;SDS011;22242;48.796;9.930;2023-07-22T09:45:20;1.30;;;1.20;;
36205;SDS011;22242;48.796;9.930;2023-07-22T09:47:49;2.28;;;1.30;;
36205;SDS011;22242;48.796;9.930;2023-07-22T09:50:18;2.58;;;1.10;;
36205;SDS011;22242;48.796;9.930;2023-07-22T09:52:47;1.83;;;1.02;;
36205;SDS011;22242;48.796;9.930;2023-07-22T09:55:16;1.65;;;1.27;;
36205;SDS011;22242;48.796;9.930;2023-07-22T09:57:45;1.92;;;1.20;;
36205;SDS011;22242;48.796;9.930;2023-07-22T10:00:13;1.08;;;0.95;;
36205;SDS011;22242;48.796;9.930;2023-07-22T10:02:43;0.95;;;0.93;;
36205;SDS011;22242;48.796;9.930;2023-07-22T10:05:12;3.20;;;1.30;;
36205;SDS011;22242;48.796;9.930;2023-07-22T10:07:42;1.02;;;1.00;;
36205;SDS011;22242;48.796;9.930;2023-07-22T10:10:12;1.33;;;1.20;;
36205;SDS011;22242;48.796;9.930;2023-07-22T10:12:41;1.65;;;1.17;;
36205;SDS011;22242;48.796;9.930;2023-07-22T10:15:09;1.98;;;1.20;;
36205;SDS011;22242;48.796;9.930;2023-07-22T10:17:37;1.65;;;1.23;;
36205;SDS011;22242;48.796;9.930;2023-07-22T10:20:07;2.03;;;1.48;;
36205;SDS011;22242;48.796;9.930;2023-07-22T10:22:37;1.42;;;1.10;;
36205;SDS011;22242;48.796;9.930;2023-07-22T10:25:04;1.23;;;1.13;;
36205;SDS011;22242;48.796;9.930;2023-07-22T10:27:33;1.90;;;1.30;;
36205;SDS011;22242;48.796;9.930;2023-07-22T10:30:01;1.50;;;1.40;;
36205;SDS011;22242;48.796;9.930;2023-07-22T10:32:32;1.90;;;1.58;;
36205;SDS011;22242;48.796;9.930;2023-07-22T10:35:04;1.55;;;1.40;;
36205;SDS011;22242;48.796;9.930;2023-07-22T10:37:36;1.40;;;1.30;;
36205;SDS011;22242;48.796;9.930;2023-07-22T10:40:17;1.25;;;1.17;;
36205;SDS011;22242;48.796;9.930;2023-07-22T10:42:52;2.13;;;1.30;;
36205;SDS011;22242;48.796;9.930;2023-07-22T10:45:23;1.15;;;1.13;;
36205;SDS011;22242;48.796;9.930;2023-07-22T10:48:02;1.40;;;1.30;;
36205;SDS011;22242;48.796;9.930;2023-07-22T10:50:39;1.92;;;1.33;;
36205;SDS011;22242;48.796;9.930;2023-07-22T10:53:10;1.55;;;1.13;;
36205;SDS011;22242;48.796;9.930;2023-07-22T10:58:58;3.13;;;1.25;;
36205;SDS011;22242;48.796;9.930;2023-07-22T11:01:33;1.40;;;1.20;;
36205;SDS011;22242;48.796;9.930;2023-07-22T11:04:08;1.85;;;1.20;;
36205;SDS011;22242;48.796;9.930;2023-07-22T11:06:37;1.52;;;1.10;;
36205;SDS011;22242;48.796;9.930;2023-07-22T11:09:07;3.50;;;1.38;;
36205;SDS011;22242;48.796;9.930;2023-07-22T11:12:01;1.98;;;1.48;;
36205;SDS011;22242;48.796;9.930;2023-07-22T11:14:30;2.45;;;1.50;;
36205;SDS011;22242;48.796;9.930;2023-07-22T11:16:58;1.60;;;1.42;;
36205;SDS011;22242;48.796;9.930;2023-07-22T11:19:27;1.38;;;1.17;;
36205;SDS011;22242;48.796;9.930;2023-07-22T11:21:54;3.70;;;1.25;;
36205;SDS011;22242;48.796;9.930;2023-07-22T11:24:23;4.10;;;1.60;;
36205;SDS011;22242;48.796;9.930;2023-07-22T11:26:51;2.70;;;1.50;;
36205;SDS011;22242;48.796;9.930;2023-07-22T11:29:18;2.38;;;1.10;;
36205;SDS011;22242;48.796;9.930;2023-07-22T11:31:46;1.70;;;1.45;;
36205;SDS011;22242;48.796;9.930;2023-07-22T11:34:14;3.15;;;1.70;;
36205;SDS011;22242;48.796;9.930;2023-07-22T11:36:43;1.63;;;1.33;;
36205;SDS011;22242;48.796;9.930;2023-07-22T11:39:11;1.55;;;1.45;;
36205;SDS011;22242;48.796;9.930;2023-07-22T11:41:41;1.75;;;1.60;;
